sensor_id;sensor_type;location;lat;lon;timestamp;pressure;altitude;pressure_sealevel;temperature
40968;BMP280;57377;45.130;6.038;2022-09-21T00:01:57;92906.00;;;12.84
40968;BMP280;57377;45.130;6.038;2022-09-21T00:04:23;92907.91;;;12.92
40968;BMP280;57377;45.130;6.038;2022-09-21T00:06:48;92910.44;;;12.97
40968;BMP280;57377;45.130;6.038;2022-09-21T00:09:14;92904.72;;;12.95
40968;BMP280;57377;45.130;6.038;2022-09-21T00:11:39;92906.00;;;12.84
40968;BMP280;57377;45.130;6.038;2022-09-21T00:14:10;92900.06;;;12.79
40968;BMP280;57377;45.130;6.038;2022-09-21T00:16:37;92910.03;;;12.77
40968;BMP280;57377;45.130;6.038;2022-09-21T00:19:03;92899.56;;;12.77
40968;BMP280;57377;45.130;6.038;2022-09-21T00:21:29;92897.53;;;12.74
40968;BMP280;57377;45.130;6.038;2022-09-21T00:23:54;92902.47;;;12.76
40968;BMP280;57377;45.130;6.038;2022-09-21T00:26:24;92897.25;;;12.76
40968;BMP280;57377;45.130;6.038;2022-09-21T00:28:52;92906.50;;;12.42
40968;BMP280;57377;45.130;6.038;2022-09-21T00:31:19;92897.63;;;12.69
40968;BMP280;57377;45.130;6.038;2022-09-21T00:33:44;92905.94;;;12.71
40968;BMP280;57377;45.130;6.038;2022-09-21T00:36:12;92905.72;;;12.54
40968;BMP280;57377;45.130;6.038;2022-09-21T00:38:38;92892.50;;;12.64
40968;BMP280;57377;45.130;6.038;2022-09-21T00:41:05;92893.66;;;12.58
40968;BMP280;57377;45.130;6.038;2022-09-21T00:43:34;92890.09;;;12.68
40968;BMP280;57377;45.130;6.038;2022-09-21T00:46:02;92887.56;;;12.63
40968;BMP280;57377;45.130;6.038;2022-09-21T00:48:28;92885.44;;;12.65
40968;BMP280;57377;45.130;6.038;2022-09-21T00:50:57;92894.03;;;12.52
40968;BMP280;57377;45.130;6.038;2022-09-21T00:53:23;92896.47;;;12.49
40968;BMP280;57377;45.130;6.038;2022-09-21T00:55:52;92890.25;;;12.58
40968;BMP280;57377;45.130;6.038;2022-09-21T00:58:25;92889.13;;;12.64
40968;BMP280;57377;45.130;6.038;2022-09-21T01:00:52;92901.25;;;12.28
40968;BMP280;57377;45.130;6.038;2022-09-21T01:03:17;92893.75;;;12.53
40968;BMP280;57377;45.130;6.038;2022-09-21T01:05:43;92906.94;;;12.30
40968;BMP280;57377;45.130;6.038;2022-09-21T01:08:09;92900.28;;;12.24
40968;BMP280;57377;45.130;6.038;2022-09-21T01:17:09;92903.97;;;12.37
40968;BMP280;57377;45.130;6.038;2022-09-21T01:22:50;92905.78;;;11.91
40968;BMP280;57377;45.130;6.038;2022-09-21T01:30:32;92913.09;;;11.89
40968;BMP280;57377;45.130;6.038;2022-09-21T01:33:08;92908.66;;;12.21
40968;BMP280;57377;45.130;6.038;2022-09-21T01:35:40;92914.97;;;12.34
40968;BMP280;57377;45.130;6.038;2022-09-21T01:38:11;92908.81;;;12.12
40968;BMP280;57377;45.130;6.038;2022-09-21T01:40:42;92917.03;;;12.37
40968;BMP280;57377;45.130;6.038;2022-09-21T01:43:12;92914.88;;;12.39
40968;BMP280;57377;45.130;6.038;2022-09-21T01:45:42;92911.56;;;12.20
40968;BMP280;57377;45.130;6.038;2022-09-21T01:48:09;92904.03;;;12.00
40968;BMP280;57377;45.130;6.038;2022-09-21T01:50:44;92902.34;;;12.09
40968;BMP280;57377;45.130;6.038;2022-09-21T01:53:32;92895.75;;;11.98
40968;BMP280;57377;45.130;6.038;2022-09-21T01:56:06;92898.28;;;12.03
40968;BMP280;57377;45.130;6.038;2022-09-21T01:58:43;92904.50;;;12.20
40968;BMP280;57377;45.130;6.038;2022-09-21T02:01:14;92900.56;;;12.36
40968;BMP280;57377;45.130;6.038;2022-09-21T02:03:45;92903.16;;;12.23
40968;BMP280;57377;45.130;6.038;2022-09-21T02:06:12;92903.84;;;12.15
40968;BMP280;57377;45.130;6.038;2022-09-21T02:08:38;92896.00;;;12.15
40968;BMP280;57377;45.130;6.038;2022-09-21T02:11:04;92899.25;;;12.07
40968;BMP280;57377;45.130;6.038;2022-09-21T02:13:34;92907.22;;;11.66
40968;BMP280;57377;45.130;6.038;2022-09-21T02:18:51;92893.13;;;11.67
40968;BMP280;57377;45.130;6.038;2022-09-21T02:21:30;92895.66;;;11.72
40968;BMP280;57377;45.130;6.038;2022-09-21T02:26:39;92894.16;;;11.84
40968;BMP280;57377;45.130;6.038;2022-09-21T02:29:20;92899.66;;;11.83
40968;BMP280;57377;45.130;6.038;2022-09-21T02:34:50;92892.56;;;11.70
40968;BMP280;57377;45.130;6.038;2022-09-21T02:42:37;92878.78;;;11.83
40968;BMP280;57377;45.130;6.038;2022-09-21T02:45:07;92880.72;;;11.77
40968;BMP280;57377;45.130;6.038;2022-09-21T02:47:45;92875.19;;;11.79
40968;BMP280;57377;45.130;6.038;2022-09-21T02:50:17;92884.75;;;12.01
40968;BMP280;57377;45.130;6.038;2022-09-21T02:52:45;92876.78;;;11.93
40968;BMP280;57377;45.130;6.038;2022-09-21T02:55:12;92892.44;;;11.93
40968;BMP280;57377;45.130;6.038;2022-09-21T02:57:38;92886.38;;;11.97
40968;BMP280;57377;45.130;6.038;2022-09-21T03:00:05;92887.69;;;11.82
40968;BMP280;57377;45.130;6.038;2022-09-21T03:02:38;92884.00;;;11.83
40968;BMP280;57377;45.130;6.038;2022-09-21T03:05:05;92879.03;;;11.68
40968;BMP280;57377;45.130;6.038;2022-09-21T03:07:31;92881.69;;;11.81
40968;BMP280;57377;45.130;6.038;2022-09-21T03:09:56;92884.88;;;11.78
40968;BMP280;57377;45.130;6.038;2022-09-21T03:12:22;92891.88;;;11.64
40968;BMP280;57377;45.130;6.038;2022-09-21T03:14:48;92884.25;;;11.50
40968;BMP280;57377;45.130;6.038;2022-09-21T03:17:15;92887.03;;;11.89
40968;BMP280;57377;45.130;6.038;2022-09-21T03:19:40;92881.41;;;11.83
40968;BMP280;57377;45.130;6.038;2022-09-21T03:22:05;92874.72;;;11.40
40968;BMP280;57377;45.130;6.038;2022-09-21T03:24:31;92872.91;;;11.59
40968;BMP280;57377;45.130;6.038;2022-09-21T03:27:20;92866.28;;;11.66
40968;BMP280;57377;45.130;6.038;2022-09-21T03:29:46;92867.34;;;11.65
40968;BMP280;57377;45.130;6.038;2022-09-21T03:32:12;92873.16;;;11.76
40968;BMP280;57377;45.130;6.038;2022-09-21T03:34:39;92865.03;;;11.64
40968;BMP280;57377;45.130;6.038;2022-09-21T03:37:06;92868.63;;;11.68
40968;BMP280;57377;45.130;6.038;2022-09-21T03:39:32;92865.50;;;11.66
40968;BMP280;57377;45.130;6.038;2022-09-21T03:41:57;92864.41;;;11.72
40968;BMP280;57377;45.130;6.038;2022-09-21T03:44:24;92871.41;;;11.71
40968;BMP280;57377;45.130;6.038;2022-09-21T03:46:50;92868.41;;;11.64
40968;BMP280;57377;45.130;6.038;2022-09-21T03:49:16;92870.53;;;11.62
40968;BMP280;57377;45.130;6.038;2022-09-21T03:51:41;92865.75;;;11.83
40968;BMP280;57377;45.130;6.038;2022-09-21T03:54:07;92875.38;;;11.69
40968;BMP280;57377;45.130;6.038;2022-09-21T03:56:33;92872.06;;;11.63
40968;BMP280;57377;45.130;6.038;2022-09-21T03:58:58;92872.81;;;11.27
40968;BMP280;57377;45.130;6.038;2022-09-21T04:01:24;92885.19;;;10.99
40968;BMP280;57377;45.130;6.038;2022-09-21T04:03:49;92876.69;;;11.30
40968;BMP280;57377;45.130;6.038;2022-09-21T04:06:14;92876.94;;;11.33
40968;BMP280;57377;45.130;6.038;2022-09-21T04:08:40;92876.94;;;11.33
40968;BMP280;57377;45.130;6.038;2022-09-21T04:11:14;92878.97;;;11.36
40968;BMP280;57377;45.130;6.038;2022-09-21T04:13:40;92872.75;;;11.32
40968;BMP280;57377;45.130;6.038;2022-09-21T04:16:07;92884.91;;;11.42
40968;BMP280;57377;45.130;6.038;2022-09-21T04:18:34;92883.34;;;11.59
40968;BMP280;57377;45.130;6.038;2022-09-21T04:20:59;92886.09;;;11.49
40968;BMP280;57377;45.130;6.038;2022-09-21T04:23:25;92890.34;;;11.45
40968;BMP280;57377;45.130;6.038;2022-09-21T04:25:50;92897.59;;;11.48
40968;BMP280;57377;45.130;6.038;2022-09-21T04:28:18;92887.03;;;11.35
40968;BMP280;57377;45.130;6.038;2022-09-21T04:30:43;92892.25;;;11.17
40968;BMP280;57377;45.130;6.038;2022-09-21T04:33:09;92894.63;;;10.95
40968;BMP280;57377;45.130;6.038;2022-09-21T04:35:34;92897.94;;;11.19
40968;BMP280;57377;45.130;6.038;2022-09-21T04:37:59;92904.84;;;11.28
40968;BMP280;57377;45.130;6.038;2022-09-21T04:40:25;92898.75;;;11.19
40968;BMP280;57377;45.130;6.038;2022-09-21T04:42:51;92909.31;;;11.04
40968;BMP280;57377;45.130;6.038;2022-09-21T04:45:18;92897.19;;;11.18
40968;BMP280;57377;45.130;6.038;2022-09-21T04:47:44;92897.03;;;11.28
40968;BMP280;57377;45.130;6.038;2022-09-21T04:50:10;92896.25;;;11.27
40968;BMP280;57377;45.130;6.038;2022-09-21T04:52:35;92894.00;;;11.21
40968;BMP280;57377;45.130;6.038;2022-09-21T04:55:01;92898.31;;;11.30
40968;BMP280;57377;45.130;6.038;2022-09-21T04:57:26;92896.13;;;11.37
40968;BMP280;57377;45.130;6.038;2022-09-21T04:59:51;92902.94;;;11.15
40968;BMP280;57377;45.130;6.038;2022-09-21T05:02:17;92905.56;;;11.15
40968;BMP280;57377;45.130;6.038;2022-09-21T05:04:42;92899.78;;;11.18
40968;BMP280;57377;45.130;6.038;2022-09-21T05:07:07;92900.97;;;11.25
40968;BMP280;57377;45.130;6.038;2022-09-21T05:09:33;92902.38;;;11.00
40968;BMP280;57377;45.130;6.038;2022-09-21T05:12:16;92904.47;;;11.16
40968;BMP280;57377;45.130;6.038;2022-09-21T05:14:42;92907.16;;;10.93
40968;BMP280;57377;45.130;6.038;2022-09-21T05:17:09;92907.88;;;11.17
40968;BMP280;57377;45.130;6.038;2022-09-21T05:19:35;92905.19;;;10.80
40968;BMP280;57377;45.130;6.038;2022-09-21T05:22:00;92906.97;;;10.85
40968;BMP280;57377;45.130;6.038;2022-09-21T05:24:25;92906.78;;;10.99
40968;BMP280;57377;45.130;6.038;2022-09-21T05:26:57;92904.56;;;11.11
40968;BMP280;57377;45.130;6.038;2022-09-21T05:29:23;92906.25;;;11.20
40968;BMP280;57377;45.130;6.038;2022-09-21T05:31:56;92917.09;;;11.27
40968;BMP280;57377;45.130;6.038;2022-09-21T05:39:46;92915.25;;;11.10
40968;BMP280;57377;45.130;6.038;2022-09-21T05:42:11;92915.69;;;11.17
40968;BMP280;57377;45.130;6.038;2022-09-21T05:44:37;92916.84;;;10.88
40968;BMP280;57377;45.130;6.038;2022-09-21T05:52:34;92914.00;;;11.07
40968;BMP280;57377;45.130;6.038;2022-09-21T06:05:48;92917.13;;;11.04
40968;BMP280;57377;45.130;6.038;2022-09-21T06:08:14;92914.53;;;11.04
40968;BMP280;57377;45.130;6.038;2022-09-21T06:10:39;92917.78;;;10.73
40968;BMP280;57377;45.130;6.038;2022-09-21T06:13:05;92918.59;;;10.92
40968;BMP280;57377;45.130;6.038;2022-09-21T06:15:30;92923.44;;;11.21
40968;BMP280;57377;45.130;6.038;2022-09-21T06:17:57;92927.59;;;11.22
40968;BMP280;57377;45.130;6.038;2022-09-21T06:20:23;92927.59;;;11.22
40968;BMP280;57377;45.130;6.038;2022-09-21T06:22:49;92921.75;;;11.12
40968;BMP280;57377;45.130;6.038;2022-09-21T06:25:14;92927.22;;;11.11
40968;BMP280;57377;45.130;6.038;2022-09-21T06:27:40;92924.41;;;10.84
40968;BMP280;57377;45.130;6.038;2022-09-21T06:30:06;92922.50;;;10.71
40968;BMP280;57377;45.130;6.038;2022-09-21T06:32:31;92926.63;;;10.72
40968;BMP280;57377;45.130;6.038;2022-09-21T06:34:56;92923.84;;;10.87
40968;BMP280;57377;45.130;6.038;2022-09-21T06:37:22;92933.19;;;11.11
40968;BMP280;57377;45.130;6.038;2022-09-21T06:39:47;92923.38;;;11.26
40968;BMP280;57377;45.130;6.038;2022-09-21T06:42:13;92919.41;;;11.11
40968;BMP280;57377;45.130;6.038;2022-09-21T06:44:38;92918.97;;;11.04
40968;BMP280;57377;45.130;6.038;2022-09-21T06:47:03;92916.09;;;11.05
40968;BMP280;57377;45.130;6.038;2022-09-21T06:49:29;92921.69;;;10.48
40968;BMP280;57377;45.130;6.038;2022-09-21T06:51:54;92927.63;;;10.53
40968;BMP280;57377;45.130;6.038;2022-09-21T06:54:20;92917.28;;;10.71
40968;BMP280;57377;45.130;6.038;2022-09-21T06:56:45;92920.66;;;10.95
40968;BMP280;57377;45.130;6.038;2022-09-21T06:59:11;92923.78;;;10.92
40968;BMP280;57377;45.130;6.038;2022-09-21T07:01:36;92921.91;;;11.39
40968;BMP280;57377;45.130;6.038;2022-09-21T07:04:02;92919.41;;;11.11
40968;BMP280;57377;45.130;6.038;2022-09-21T07:06:27;92920.75;;;10.85
40968;BMP280;57377;45.130;6.038;2022-09-21T07:08:53;92923.53;;;10.47
40968;BMP280;57377;45.130;6.038;2022-09-21T07:11:19;92919.22;;;10.38
40968;BMP280;57377;45.130;6.038;2022-09-21T07:13:45;92920.84;;;10.29
40968;BMP280;57377;45.130;6.038;2022-09-21T07:16:11;92914.56;;;10.58
40968;BMP280;57377;45.130;6.038;2022-09-21T07:18:38;92915.94;;;11.38
40968;BMP280;57377;45.130;6.038;2022-09-21T07:21:06;92916.69;;;11.93
40968;BMP280;57377;45.130;6.038;2022-09-21T07:23:31;92908.69;;;12.35
40968;BMP280;57377;45.130;6.038;2022-09-21T07:26:05;92909.63;;;12.70
40968;BMP280;57377;45.130;6.038;2022-09-21T07:28:36;92909.25;;;13.16
40968;BMP280;57377;45.130;6.038;2022-09-21T07:31:10;92915.88;;;13.84
40968;BMP280;57377;45.130;6.038;2022-09-21T07:33:36;92907.31;;;14.05
40968;BMP280;57377;45.130;6.038;2022-09-21T07:36:02;92891.75;;;15.45
40968;BMP280;57377;45.130;6.038;2022-09-21T07:38:35;92894.84;;;16.39
40968;BMP280;57377;45.130;6.038;2022-09-21T07:41:01;92901.22;;;16.22
40968;BMP280;57377;45.130;6.038;2022-09-21T07:43:27;92885.28;;;17.34
40968;BMP280;57377;45.130;6.038;2022-09-21T07:45:54;92892.31;;;17.91
40968;BMP280;57377;45.130;6.038;2022-09-21T07:48:22;92887.06;;;18.31
40968;BMP280;57377;45.130;6.038;2022-09-21T07:50:48;92887.63;;;19.60
40968;BMP280;57377;45.130;6.038;2022-09-21T07:53:14;92878.47;;;18.98
40968;BMP280;57377;45.130;6.038;2022-09-21T07:55:40;92885.34;;;20.09
40968;BMP280;57377;45.130;6.038;2022-09-21T07:58:06;92878.16;;;20.90
40968;BMP280;57377;45.130;6.038;2022-09-21T08:00:50;92876.47;;;20.28
40968;BMP280;57377;45.130;6.038;2022-09-21T08:03:15;92884.28;;;20.64
40968;BMP280;57377;45.130;6.038;2022-09-21T08:05:41;92877.28;;;19.43
40968;BMP280;57377;45.130;6.038;2022-09-21T08:08:06;92875.28;;;19.52
40968;BMP280;57377;45.130;6.038;2022-09-21T08:10:32;92870.84;;;20.84
40968;BMP280;57377;45.130;6.038;2022-09-21T08:12:59;92857.63;;;21.45
40968;BMP280;57377;45.130;6.038;2022-09-21T08:15:25;92864.06;;;21.78
40968;BMP280;57377;45.130;6.038;2022-09-21T08:17:54;92858.66;;;21.41
40968;BMP280;57377;45.130;6.038;2022-09-21T08:20:20;92845.16;;;21.46
40968;BMP280;57377;45.130;6.038;2022-09-21T08:22:46;92857.97;;;21.13
40968;BMP280;57377;45.130;6.038;2022-09-21T08:25:12;92851.22;;;21.46
40968;BMP280;57377;45.130;6.038;2022-09-21T08:27:37;92857.91;;;19.86
40968;BMP280;57377;45.130;6.038;2022-09-21T08:30:05;92844.78;;;21.62
40968;BMP280;57377;45.130;6.038;2022-09-21T08:32:31;92852.72;;;21.32
40968;BMP280;57377;45.130;6.038;2022-09-21T08:34:57;92847.28;;;21.10
40968;BMP280;57377;45.130;6.038;2022-09-21T08:37:22;92853.63;;;19.58
40968;BMP280;57377;45.130;6.038;2022-09-21T08:39:48;92860.84;;;19.96
40968;BMP280;57377;45.130;6.038;2022-09-21T08:42:44;92855.13;;;19.94
40968;BMP280;57377;45.130;6.038;2022-09-21T08:45:17;92859.66;;;19.82
40968;BMP280;57377;45.130;6.038;2022-09-21T08:47:44;92853.63;;;19.46
40968;BMP280;57377;45.130;6.038;2022-09-21T08:50:35;92859.13;;;19.41
40968;BMP280;57377;45.130;6.038;2022-09-21T08:53:05;92855.94;;;19.60
40968;BMP280;57377;45.130;6.038;2022-09-21T08:55:31;92850.47;;;19.29
40968;BMP280;57377;45.130;6.038;2022-09-21T08:57:59;92853.84;;;19.65
40968;BMP280;57377;45.130;6.038;2022-09-21T09:00:34;92863.38;;;19.93
40968;BMP280;57377;45.130;6.038;2022-09-21T09:03:28;92858.59;;;19.48
40968;BMP280;57377;45.130;6.038;2022-09-21T09:22:15;92854.00;;;18.54
40968;BMP280;57377;45.130;6.038;2022-09-21T09:27:54;92848.81;;;19.01
40968;BMP280;57377;45.130;6.038;2022-09-21T09:30:27;92853.06;;;19.64
40968;BMP280;57377;45.130;6.038;2022-09-21T09:33:02;92858.78;;;18.08
40968;BMP280;57377;45.130;6.038;2022-09-21T09:50:40;92839.78;;;19.49
40968;BMP280;57377;45.130;6.038;2022-09-21T09:53:51;92839.22;;;19.56
40968;BMP280;57377;45.130;6.038;2022-09-21T09:56:18;92835.53;;;19.33
40968;BMP280;57377;45.130;6.038;2022-09-21T09:58:57;92825.84;;;19.13
40968;BMP280;57377;45.130;6.038;2022-09-21T10:01:45;92823.81;;;19.81
40968;BMP280;57377;45.130;6.038;2022-09-21T10:04:16;92823.19;;;19.13
40968;BMP280;57377;45.130;6.038;2022-09-21T10:06:50;92809.03;;;19.29
40968;BMP280;57377;45.130;6.038;2022-09-21T10:09:31;92808.25;;;19.29
40968;BMP280;57377;45.130;6.038;2022-09-21T10:12:23;92811.03;;;19.71
40968;BMP280;57377;45.130;6.038;2022-09-21T10:14:56;92811.03;;;19.71
40968;BMP280;57377;45.130;6.038;2022-09-21T10:17:24;92806.13;;;19.97
40968;BMP280;57377;45.130;6.038;2022-09-21T10:20:00;92800.53;;;19.48
40968;BMP280;57377;45.130;6.038;2022-09-21T10:22:27;92809.81;;;20.20
40968;BMP280;57377;45.130;6.038;2022-09-21T10:24:53;92808.81;;;18.99
40968;BMP280;57377;45.130;6.038;2022-09-21T10:27:25;92801.22;;;19.45
40968;BMP280;57377;45.130;6.038;2022-09-21T10:29:51;92799.16;;;19.77
40968;BMP280;57377;45.130;6.038;2022-09-21T10:32:19;92798.06;;;19.78
40968;BMP280;57377;45.130;6.038;2022-09-21T10:37:34;92800.38;;;19.68
40968;BMP280;57377;45.130;6.038;2022-09-21T10:40:02;92792.84;;;19.93
40968;BMP280;57377;45.130;6.038;2022-09-21T10:42:34;92800.03;;;19.69
40968;BMP280;57377;45.130;6.038;2022-09-21T10:45:18;92800.44;;;20.22
40968;BMP280;57377;45.130;6.038;2022-09-21T10:52:46;92808.03;;;19.22
40968;BMP280;57377;45.130;6.038;2022-09-21T10:55:17;92811.03;;;19.71
40968;BMP280;57377;45.130;6.038;2022-09-21T10:57:44;92816.78;;;19.61
40968;BMP280;57377;45.130;6.038;2022-09-21T11:02:47;92817.41;;;19.82
40968;BMP280;57377;45.130;6.038;2022-09-21T11:05:21;92811.28;;;19.78
40968;BMP280;57377;45.130;6.038;2022-09-21T11:10:38;92802.84;;;20.00
40968;BMP280;57377;45.130;6.038;2022-09-21T11:13:27;92795.75;;;20.58
40968;BMP280;57377;45.130;6.038;2022-09-21T11:16:00;92794.28;;;20.33
40968;BMP280;57377;45.130;6.038;2022-09-21T11:18:33;92787.59;;;20.51
40968;BMP280;57377;45.130;6.038;2022-09-21T11:21:08;92779.81;;;20.70
40968;BMP280;57377;45.130;6.038;2022-09-21T11:23:48;92780.66;;;19.89
40968;BMP280;57377;45.130;6.038;2022-09-21T11:26:29;92771.78;;;20.66
40968;BMP280;57377;45.130;6.038;2022-09-21T11:41:48;92763.81;;;20.09
40968;BMP280;57377;45.130;6.038;2022-09-21T11:45:00;92754.91;;;20.71
40968;BMP280;57377;45.130;6.038;2022-09-21T11:47:44;92747.38;;;21.03
40968;BMP280;57377;45.130;6.038;2022-09-21T11:53:38;92743.75;;;21.11
40968;BMP280;57377;45.130;6.038;2022-09-21T12:02:36;92744.69;;;21.53
40968;BMP280;57377;45.130;6.038;2022-09-21T12:05:14;92745.31;;;21.46
40968;BMP280;57377;45.130;6.038;2022-09-21T12:13:39;92731.34;;;21.64
40968;BMP280;57377;45.130;6.038;2022-09-21T12:19:02;92732.41;;;21.11
40968;BMP280;57377;45.130;6.038;2022-09-21T12:21:38;92729.88;;;20.84
40968;BMP280;57377;45.130;6.038;2022-09-21T12:24:56;92732.53;;;20.84
40968;BMP280;57377;45.130;6.038;2022-09-21T12:27:31;92730.66;;;20.84
40968;BMP280;57377;45.130;6.038;2022-09-21T12:30:05;92731.25;;;21.27
40968;BMP280;57377;45.130;6.038;2022-09-21T12:40:38;92723.72;;;20.49
40968;BMP280;57377;45.130;6.038;2022-09-21T12:43:37;92719.38;;;21.02
40968;BMP280;57377;45.130;6.038;2022-09-21T12:46:08;92711.31;;;21.48
40968;BMP280;57377;45.130;6.038;2022-09-21T12:48:37;92708.47;;;20.89
40968;BMP280;57377;45.130;6.038;2022-09-21T12:53:31;92704.41;;;21.44
40968;BMP280;57377;45.130;6.038;2022-09-21T12:56:08;92694.13;;;21.57
40968;BMP280;57377;45.130;6.038;2022-09-21T13:01:54;92689.09;;;21.53
40968;BMP280;57377;45.130;6.038;2022-09-21T13:09:19;92696.63;;;21.17
40968;BMP280;57377;45.130;6.038;2022-09-21T13:11:57;92697.81;;;21.19
40968;BMP280;57377;45.130;6.038;2022-09-21T13:14:24;92686.41;;;21.49
40968;BMP280;57377;45.130;6.038;2022-09-21T13:16:56;92684.16;;;21.51
40968;BMP280;57377;45.130;6.038;2022-09-21T13:19:26;92680.41;;;21.18
40968;BMP280;57377;45.130;6.038;2022-09-21T13:22:19;92677.94;;;21.44
40968;BMP280;57377;45.130;6.038;2022-09-21T13:25:38;92673.78;;;21.43
40968;BMP280;57377;45.130;6.038;2022-09-21T13:32:56;92672.66;;;21.44
40968;BMP280;57377;45.130;6.038;2022-09-21T13:38:55;92668.81;;;21.41
40968;BMP280;57377;45.130;6.038;2022-09-21T13:54:23;92678.88;;;21.17
40968;BMP280;57377;45.130;6.038;2022-09-21T13:57:12;92665.91;;;21.12
40968;BMP280;57377;45.130;6.038;2022-09-21T13:59:40;92670.13;;;20.98
40968;BMP280;57377;45.130;6.038;2022-09-21T14:02:22;92670.94;;;21.17
40968;BMP280;57377;45.130;6.038;2022-09-21T14:04:50;92679.84;;;21.09
40968;BMP280;57377;45.130;6.038;2022-09-21T14:07:17;92675.47;;;21.17
40968;BMP280;57377;45.130;6.038;2022-09-21T14:09:53;92667.69;;;20.90
40968;BMP280;57377;45.130;6.038;2022-09-21T14:12:22;92670.13;;;20.98
40968;BMP280;57377;45.130;6.038;2022-09-21T14:15:09;92670.00;;;20.76
40968;BMP280;57377;45.130;6.038;2022-09-21T14:17:40;92667.09;;;21.15
40968;BMP280;57377;45.130;6.038;2022-09-21T14:20:27;92657.44;;;21.22
40968;BMP280;57377;45.130;6.038;2022-09-21T14:25:51;92667.09;;;20.81
40968;BMP280;57377;45.130;6.038;2022-09-21T14:28:26;92662.31;;;21.20
40968;BMP280;57377;45.130;6.038;2022-09-21T14:30:56;92666.84;;;20.86
40968;BMP280;57377;45.130;6.038;2022-09-21T14:33:39;92675.84;;;21.00
40968;BMP280;57377;45.130;6.038;2022-09-21T14:36:08;92663.19;;;21.09
40968;BMP280;57377;45.130;6.038;2022-09-21T14:38:40;92673.34;;;20.73
40968;BMP280;57377;45.130;6.038;2022-09-21T14:41:07;92668.53;;;20.93
40968;BMP280;57377;45.130;6.038;2022-09-21T14:43:35;92673.94;;;20.66
40968;BMP280;57377;45.130;6.038;2022-09-21T14:46:18;92679.91;;;20.48
40968;BMP280;57377;45.130;6.038;2022-09-21T14:49:24;92669.84;;;20.84
40968;BMP280;57377;45.130;6.038;2022-09-21T15:00:23;92678.97;;;20.56
40968;BMP280;57377;45.130;6.038;2022-09-21T15:05:42;92682.66;;;20.36
40968;BMP280;57377;45.130;6.038;2022-09-21T15:08:20;92688.94;;;20.17
40968;BMP280;57377;45.130;6.038;2022-09-21T15:14:07;92683.63;;;19.86
40968;BMP280;57377;45.130;6.038;2022-09-21T15:16:46;92684.94;;;20.23
40968;BMP280;57377;45.130;6.038;2022-09-21T15:21:53;92688.94;;;20.32
40968;BMP280;57377;45.130;6.038;2022-09-21T15:24:35;92696.69;;;20.40
40968;BMP280;57377;45.130;6.038;2022-09-21T15:27:13;92698.84;;;20.35
40968;BMP280;57377;45.130;6.038;2022-09-21T15:29:42;92698.16;;;20.23
40968;BMP280;57377;45.130;6.038;2022-09-21T15:32:43;92704.56;;;19.79
40968;BMP280;57377;45.130;6.038;2022-09-21T15:37:39;92700.22;;;20.29
40968;BMP280;57377;45.130;6.038;2022-09-21T15:42:57;92700.44;;;20.09
40968;BMP280;57377;45.130;6.038;2022-09-21T15:45:56;92703.25;;;20.00
40968;BMP280;57377;45.130;6.038;2022-09-21T15:48:24;92700.94;;;20.14
40968;BMP280;57377;45.130;6.038;2022-09-21T15:50:53;92699.59;;;20.20
40968;BMP280;57377;45.130;6.038;2022-09-21T15:53:27;92707.56;;;19.93
40968;BMP280;57377;45.130;6.038;2022-09-21T15:55:55;92715.06;;;19.91
40968;BMP280;57377;45.130;6.038;2022-09-21T15:58:34;92719.28;;;19.80
40968;BMP280;57377;45.130;6.038;2022-09-21T16:01:03;92724.50;;;19.92
40968;BMP280;57377;45.130;6.038;2022-09-21T16:03:32;92723.09;;;19.56
40968;BMP280;57377;45.130;6.038;2022-09-21T16:05:58;92721.94;;;19.68
40968;BMP280;57377;45.130;6.038;2022-09-21T16:08:33;92718.34;;;19.22
40968;BMP280;57377;45.130;6.038;2022-09-21T16:11:18;92731.53;;;19.22
40968;BMP280;57377;45.130;6.038;2022-09-21T16:13:47;92734.63;;;18.77
40968;BMP280;57377;45.130;6.038;2022-09-21T16:16:31;92740.22;;;19.23
40968;BMP280;57377;45.130;6.038;2022-09-21T16:18:57;92738.56;;;19.18
40968;BMP280;57377;45.130;6.038;2022-09-21T16:21:30;92748.78;;;19.31
40968;BMP280;57377;45.130;6.038;2022-09-21T16:24:07;92745.41;;;19.19
40968;BMP280;57377;45.130;6.038;2022-09-21T16:26:36;92750.53;;;19.27
40968;BMP280;57377;45.130;6.038;2022-09-21T16:31:39;92752.88;;;19.05
40968;BMP280;57377;45.130;6.038;2022-09-21T16:34:18;92748.69;;;19.28
40968;BMP280;57377;45.130;6.038;2022-09-21T16:36:47;92763.63;;;19.24
40968;BMP280;57377;45.130;6.038;2022-09-21T16:39:15;92761.22;;;19.19
40968;BMP280;57377;45.130;6.038;2022-09-21T16:41:47;92762.97;;;19.15
40968;BMP280;57377;45.130;6.038;2022-09-21T16:44:23;92777.28;;;19.02
40968;BMP280;57377;45.130;6.038;2022-09-21T16:46:58;92778.19;;;19.06
40968;BMP280;57377;45.130;6.038;2022-09-21T16:49:25;92773.50;;;19.27
40968;BMP280;57377;45.130;6.038;2022-09-21T16:51:53;92777.38;;;19.18
40968;BMP280;57377;45.130;6.038;2022-09-21T16:54:20;92769.88;;;19.31
40968;BMP280;57377;45.130;6.038;2022-09-21T16:56:49;92786.91;;;19.34
40968;BMP280;57377;45.130;6.038;2022-09-21T16:59:16;92793.75;;;18.76
40968;BMP280;57377;45.130;6.038;2022-09-21T17:01:47;92797.41;;;18.28
40968;BMP280;57377;45.130;6.038;2022-09-21T17:04:15;92795.69;;;18.55
40968;BMP280;57377;45.130;6.038;2022-09-21T17:06:41;92801.63;;;18.64
40968;BMP280;57377;45.130;6.038;2022-09-21T17:09:19;92800.94;;;18.55
40968;BMP280;57377;45.130;6.038;2022-09-21T17:11:45;92807.53;;;18.49
40968;BMP280;57377;45.130;6.038;2022-09-21T17:14:12;92809.31;;;18.57
40968;BMP280;57377;45.130;6.038;2022-09-21T17:16:43;92814.50;;;18.65
40968;BMP280;57377;45.130;6.038;2022-09-21T17:19:09;92815.44;;;18.49
40968;BMP280;57377;45.130;6.038;2022-09-21T17:21:35;92808.19;;;18.46
40968;BMP280;57377;45.130;6.038;2022-09-21T17:24:01;92813.25;;;18.51
40968;BMP280;57377;45.130;6.038;2022-09-21T17:26:26;92812.16;;;18.52
40968;BMP280;57377;45.130;6.038;2022-09-21T17:28:52;92820.66;;;18.26
40968;BMP280;57377;45.130;6.038;2022-09-21T17:31:19;92824.56;;;18.08
40968;BMP280;57377;45.130;6.038;2022-09-21T17:33:47;92828.91;;;18.04
40968;BMP280;57377;45.130;6.038;2022-09-21T17:36:15;92828.44;;;18.02
40968;BMP280;57377;45.130;6.038;2022-09-21T17:38:41;92832.28;;;18.25
40968;BMP280;57377;45.130;6.038;2022-09-21T17:41:27;92831.72;;;17.99
40968;BMP280;57377;45.130;6.038;2022-09-21T17:44:16;92842.19;;;17.87
40968;BMP280;57377;45.130;6.038;2022-09-21T17:49:12;92853.81;;;17.86